createdAt,value
2022-11-14T00:01:00.580Z,78.88
2022-11-14T00:03:27.019Z,79.16
2022-11-14T00:05:53.330Z,79.24
2022-11-14T00:08:19.681Z,79.47
2022-11-14T00:10:46.026Z,79.46
2022-11-14T00:13:12.364Z,79.89
2022-11-14T00:15:38.677Z,80.29
2022-11-14T00:18:05.034Z,80.36
2022-11-14T00:20:31.348Z,80.84
2022-11-14T00:22:57.707Z,81.42
2022-11-14T00:25:24.041Z,81.72
2022-11-14T00:27:50.356Z,81.96
2022-11-14T00:30:16.711Z,82.17
2022-11-14T00:32:43.025Z,82.15
2022-11-14T00:35:09.379Z,81.83
2022-11-14T00:37:35.728Z,81.98
2022-11-14T00:40:02.037Z,81.85
2022-11-14T00:42:28.388Z,81.45
2022-11-14T00:44:54.720Z,81.59
2022-11-14T00:47:21.073Z,81.78
2022-11-14T00:49:47.383Z,81.92
2022-11-14T00:52:13.710Z,81.96
2022-11-14T00:54:40.048Z,82.13
2022-11-14T00:57:06.364Z,82.24
2022-11-14T00:59:32.685Z,82.33
2022-11-14T01:01:59.023Z,82.64
2022-11-14T01:04:25.520Z,82.50
2022-11-14T01:06:51.838Z,82.28
2022-11-14T01:09:18.246Z,81.99
2022-11-14T01:11:44.503Z,82.37
2022-11-14T01:14:10.820Z,82.54
2022-11-14T01:16:37.220Z,82.60
2022-11-14T01:19:04.234Z,82.69
2022-11-14T01:21:30.547Z,82.64
2022-11-14T01:23:56.864Z,82.58
2022-11-14T01:26:23.226Z,82.33
2022-11-14T01:28:49.555Z,82.27
2022-11-14T01:31:15.951Z,82.24
2022-11-14T01:33:42.403Z,82.12
2022-11-14T01:36:08.687Z,82.17
2022-11-14T01:38:35.023Z,82.18
2022-11-14T01:41:01.336Z,82.34
2022-11-14T01:43:27.680Z,82.36
2022-11-14T01:45:54.019Z,82.33
2022-11-14T01:48:20.350Z,82.49
2022-11-14T01:50:46.676Z,82.71
2022-11-14T01:53:13.006Z,82.64
2022-11-14T01:55:39.321Z,82.74
2022-11-14T01:58:05.637Z,82.70
2022-11-14T02:00:31.964Z,82.76
2022-11-14T02:02:58.292Z,82.80
2022-11-14T02:05:24.608Z,82.84
2022-11-14T02:07:50.982Z,82.97
2022-11-14T02:10:17.319Z,83.11
2022-11-14T02:12:43.654Z,83.04
2022-11-14T02:15:09.978Z,83.38
2022-11-14T02:17:36.304Z,83.65
2022-11-14T02:20:05.359Z,83.79
2022-11-14T02:22:29.004Z,83.74
2022-11-14T02:24:55.339Z,83.64
2022-11-14T02:27:21.673Z,83.84
2022-11-14T02:29:47.998Z,83.73
2022-11-14T02:32:14.333Z,83.81
2022-11-14T02:34:40.666Z,83.90
2022-11-14T02:37:06.982Z,83.87
2022-11-14T02:39:33.317Z,83.85
2022-11-14T02:41:59.666Z,83.75
2022-11-14T02:44:26.009Z,83.98
2022-11-14T02:46:52.333Z,83.72
2022-11-14T02:49:18.706Z,83.64
2022-11-14T02:51:45.080Z,83.48
2022-11-14T02:54:11.488Z,83.36
2022-11-14T02:56:37.812Z,83.48
2022-11-14T02:59:04.169Z,83.63
2022-11-14T03:01:30.550Z,83.76
2022-11-14T03:03:56.837Z,83.80
2022-11-14T03:06:23.181Z,83.73
2022-11-14T03:08:49.495Z,83.82
2022-11-14T03:11:15.832Z,84.04
2022-11-14T03:13:42.175Z,84.03
2022-11-14T03:16:08.491Z,84.12
2022-11-14T03:18:34.851Z,84.23
2022-11-14T03:21:01.196Z,84.37
2022-11-14T03:23:27.528Z,84.16
2022-11-14T03:25:53.873Z,83.92
2022-11-14T03:28:20.191Z,83.82
2022-11-14T03:30:46.539Z,83.52
2022-11-14T03:33:12.908Z,83.37
2022-11-14T03:35:39.254Z,83.24
2022-11-14T03:38:05.570Z,83.46
2022-11-14T03:40:31.894Z,83.64
2022-11-14T03:42:58.245Z,83.47
2022-11-14T03:45:24.607Z,83.30
2022-11-14T03:47:50.918Z,83.29
2022-11-14T03:50:17.289Z,83.35
2022-11-14T03:52:43.620Z,83.56
2022-11-14T03:55:09.959Z,83.72
2022-11-14T03:57:36.273Z,83.84
2022-11-14T04:00:02.619Z,84.04
2022-11-14T04:02:28.988Z,83.90
2022-11-14T04:04:55.324Z,84.16
2022-11-14T04:07:21.647Z,84.26
2022-11-14T04:09:48.081Z,84.55
2022-11-14T04:12:15.923Z,84.72
2022-11-14T04:14:40.736Z,84.99
2022-11-14T04:17:07.103Z,85.03
2022-11-14T04:19:33.437Z,84.77
2022-11-14T04:21:59.752Z,84.84
2022-11-14T04:24:26.134Z,84.99
2022-11-14T04:26:52.426Z,85.08
2022-11-14T04:29:18.759Z,85.40
2022-11-14T04:31:45.109Z,85.52
2022-11-14T04:34:11.458Z,85.71
2022-11-14T04:36:37.787Z,85.83
2022-11-14T04:39:04.105Z,85.65
2022-11-14T04:41:30.488Z,85.57
2022-11-14T04:43:56.801Z,85.46
2022-11-14T04:46:23.135Z,85.24
2022-11-14T04:48:49.485Z,85.15
2022-11-14T04:51:15.822Z,85.17
2022-11-14T04:53:42.156Z,85.26
2022-11-14T04:56:08.492Z,85.23
2022-11-14T04:58:34.830Z,85.05
2022-11-14T05:01:01.179Z,84.92
2022-11-14T05:03:27.464Z,84.93
2022-11-14T05:05:53.805Z,85.02
2022-11-14T05:08:20.141Z,84.89
2022-11-14T05:10:46.504Z,84.98
2022-11-14T05:13:12.824Z,84.86
2022-11-14T05:15:39.169Z,84.94
2022-11-14T05:18:05.486Z,85.01
2022-11-14T05:20:31.804Z,85.05
2022-11-14T05:22:58.143Z,84.97
2022-11-14T05:25:24.502Z,84.87
2022-11-14T05:27:50.869Z,85.12
2022-11-14T05:30:17.264Z,85.05
2022-11-14T05:32:43.609Z,85.16
2022-11-14T05:35:09.941Z,85.06
2022-11-14T05:37:36.316Z,85.07
2022-11-14T05:40:02.676Z,84.74
2022-11-14T05:42:28.997Z,84.73
2022-11-14T05:44:55.317Z,84.36
2022-11-14T05:47:21.681Z,84.15
2022-11-14T05:49:48.012Z,84.38
2022-11-14T05:52:14.332Z,84.28
2022-11-14T05:54:40.714Z,83.84
2022-11-14T05:57:07.050Z,83.92
2022-11-14T05:59:33.361Z,84.61
2022-11-14T06:01:59.829Z,85.03
2022-11-14T06:04:26.111Z,84.68
2022-11-14T06:06:52.493Z,84.73
2022-11-14T06:09:18.755Z,84.67
2022-11-14T06:11:45.113Z,84.23
2022-11-14T06:14:11.508Z,83.94
2022-11-14T06:16:37.779Z,84.35
2022-11-14T06:19:04.114Z,84.49
2022-11-14T06:21:30.463Z,84.06
2022-11-14T06:23:56.800Z,84.37
2022-11-14T06:26:23.138Z,84.26
2022-11-14T06:28:49.491Z,84.01
2022-11-14T06:31:15.879Z,83.60
2022-11-14T06:33:42.209Z,83.58
2022-11-14T06:36:08.527Z,83.38
2022-11-14T06:38:34.879Z,83.27
2022-11-14T06:41:01.270Z,83.12
2022-11-14T06:43:27.578Z,83.13
2022-11-14T06:45:53.917Z,83.07
2022-11-14T06:48:20.232Z,82.91
2022-11-14T06:50:46.572Z,82.83
2022-11-14T06:53:12.910Z,82.46
2022-11-14T06:55:39.233Z,82.31
2022-11-14T06:58:05.613Z,82.22
2022-11-14T07:00:31.961Z,82.08
2022-11-14T07:02:58.249Z,81.78
2022-11-14T07:05:24.562Z,81.48
2022-11-14T07:07:50.893Z,81.94
2022-11-14T07:10:17.233Z,82.05
2022-11-14T07:12:43.549Z,81.92
2022-11-14T07:15:09.887Z,82.12
2022-11-14T07:17:36.233Z,82.05
2022-11-14T07:20:02.569Z,81.93
2022-11-14T07:22:28.963Z,81.79
2022-11-14T07:24:55.293Z,81.76
2022-11-14T07:27:21.642Z,81.58
2022-11-14T07:29:47.965Z,81.47
2022-11-14T07:32:14.276Z,81.42
2022-11-14T07:34:40.600Z,81.55
2022-11-14T07:37:06.961Z,81.44
2022-11-14T07:39:33.300Z,81.11
2022-11-14T07:41:59.624Z,80.94
2022-11-14T07:44:25.955Z,80.27
2022-11-14T07:46:52.313Z,79.64
2022-11-14T07:49:18.654Z,79.61
2022-11-14T07:51:44.975Z,79.79
2022-11-14T07:54:11.336Z,79.64
2022-11-14T07:56:37.657Z,79.45
2022-11-14T07:59:03.976Z,79.40
2022-11-14T08:01:30.393Z,79.00
2022-11-14T08:03:56.664Z,78.93
2022-11-14T08:06:22.988Z,78.30
2022-11-14T08:08:49.321Z,78.25
2022-11-14T08:11:31.595Z,78.38
2022-11-14T08:13:42.005Z,77.93
2022-11-14T08:16:12.833Z,78.82
2022-11-14T08:18:34.675Z,78.59
2022-11-14T08:21:00.990Z,78.67
2022-11-14T08:23:27.368Z,78.87
2022-11-14T08:25:53.687Z,78.67
2022-11-14T08:28:20.044Z,78.30
2022-11-14T08:30:46.367Z,78.14
2022-11-14T08:33:12.689Z,77.96
2022-11-14T08:35:39.028Z,78.03
2022-11-14T08:38:05.343Z,77.80
2022-11-14T08:40:31.681Z,78.08
2022-11-14T08:42:58.023Z,78.09
2022-11-14T08:45:24.375Z,78.44
2022-11-14T08:47:50.704Z,78.67
2022-11-14T08:50:17.068Z,78.28
2022-11-14T08:52:43.456Z,78.48
2022-11-14T08:55:09.779Z,78.69
2022-11-14T08:57:36.104Z,78.21
2022-11-14T09:00:02.453Z,77.98
2022-11-14T09:02:28.878Z,78.14
2022-11-14T09:04:55.301Z,78.30
2022-11-14T09:07:21.565Z,77.91
2022-11-14T09:09:47.934Z,77.96
2022-11-14T09:12:14.255Z,78.01
2022-11-14T09:14:40.597Z,78.16
2022-11-14T09:17:06.991Z,78.39
2022-11-14T09:19:33.313Z,78.96
2022-11-14T09:21:59.665Z,78.32
2022-11-14T09:24:26.005Z,78.17
2022-11-14T09:26:56.780Z,78.92
2022-11-14T09:29:18.675Z,78.25
2022-11-14T09:31:45.054Z,78.18
2022-11-14T09:34:11.394Z,78.00
2022-11-14T09:36:37.721Z,77.30
2022-11-14T09:39:04.086Z,76.99
2022-11-14T09:41:30.426Z,76.65
2022-11-14T09:43:56.766Z,77.11
2022-11-14T09:46:23.098Z,77.55
2022-11-14T09:48:49.450Z,77.70
2022-11-14T09:51:15.789Z,76.69
2022-11-14T09:53:42.131Z,76.61
2022-11-14T09:56:08.455Z,76.45
2022-11-14T09:58:34.813Z,76.71
2022-11-14T10:01:03.851Z,75.63
2022-11-14T10:03:27.814Z,75.32
2022-11-14T10:05:53.859Z,75.17
2022-11-14T10:08:20.178Z,73.99
2022-11-14T10:10:46.509Z,73.04
2022-11-14T10:13:12.845Z,73.42
2022-11-14T10:15:39.178Z,73.64
2022-11-14T10:18:05.502Z,73.52
2022-11-14T10:20:31.858Z,72.54
2022-11-14T10:23:01.344Z,71.72
2022-11-14T10:25:24.507Z,70.55
2022-11-14T10:27:55.907Z,70.70
2022-11-14T10:30:17.233Z,67.96
2022-11-14T10:32:43.541Z,64.66
2022-11-14T10:35:09.900Z,63.51
2022-11-14T10:37:36.256Z,60.42
2022-11-14T10:40:02.600Z,60.76
2022-11-14T10:42:28.947Z,59.58
2022-11-14T10:44:55.287Z,59.30
2022-11-14T10:47:21.649Z,58.72
2022-11-14T10:49:48.013Z,58.29
2022-11-14T10:52:14.333Z,58.10
2022-11-14T10:54:40.712Z,57.57
2022-11-14T10:57:07.103Z,55.34
2022-11-14T10:59:33.464Z,56.31
2022-11-14T11:01:59.830Z,57.12
2022-11-14T11:04:26.345Z,55.77
2022-11-14T11:09:40.740Z,55.24
2022-11-14T11:12:03.066Z,55.36
2022-11-14T11:14:29.348Z,54.46
2022-11-14T11:16:55.754Z,54.91
2022-11-14T11:19:22.103Z,57.18
2022-11-14T11:21:48.548Z,55.08
2022-11-14T11:24:14.827Z,54.21
2022-11-14T11:26:41.205Z,52.94
2022-11-14T11:29:07.522Z,53.20
2022-11-14T11:31:33.843Z,52.55
2022-11-14T11:34:00.173Z,52.50
2022-11-14T11:36:26.495Z,52.44
2022-11-14T11:38:52.858Z,52.19
2022-11-14T11:41:27.370Z,53.04
2022-11-14T11:43:45.569Z,52.24
2022-11-14T11:46:11.880Z,52.09
2022-11-14T11:48:38.271Z,51.08
2022-11-14T11:51:04.624Z,52.05
2022-11-14T11:53:31.117Z,51.11
2022-11-14T11:55:57.268Z,50.48
2022-11-14T11:58:23.644Z,52.35
2022-11-14T12:00:49.954Z,52.67
2022-11-14T12:03:20.349Z,51.01
2022-11-14T12:05:42.712Z,50.55
2022-11-14T12:08:09.044Z,50.97
2022-11-14T12:10:35.364Z,50.61
2022-11-14T12:13:01.703Z,52.05
2022-11-14T12:15:28.057Z,51.73
2022-11-14T12:17:54.415Z,51.16
2022-11-14T12:20:20.736Z,51.34
2022-11-14T12:22:47.116Z,52.25
2022-11-14T12:25:13.441Z,51.58
2022-11-14T12:27:39.858Z,50.16
2022-11-14T12:30:06.153Z,50.41
2022-11-14T12:32:32.515Z,50.96
2022-11-14T12:34:58.895Z,52.02
2022-11-14T12:37:25.198Z,51.02
2022-11-14T12:39:51.570Z,50.66
2022-11-14T12:42:17.941Z,49.35
2022-11-14T12:44:44.249Z,49.90
2022-11-14T12:47:10.660Z,49.54
2022-11-14T12:49:36.989Z,48.51
2022-11-14T12:52:03.357Z,49.24
2022-11-14T12:54:29.709Z,48.30
2022-11-14T12:56:56.072Z,48.61
2022-11-14T12:59:22.436Z,48.93
2022-11-14T13:01:48.863Z,48.75
2022-11-14T13:04:15.250Z,48.88
2022-11-14T13:06:41.517Z,49.38
2022-11-14T13:09:07.883Z,50.00
2022-11-14T13:11:34.287Z,50.01
2022-11-14T13:14:00.612Z,49.55
2022-11-14T13:16:26.981Z,49.92
2022-11-14T13:18:53.376Z,49.66
2022-11-14T13:21:19.718Z,48.98
2022-11-14T13:23:46.045Z,49.85
2022-11-14T13:26:12.425Z,50.56
2022-11-14T13:28:38.785Z,50.64
2022-11-14T13:31:05.144Z,50.87
2022-11-14T13:33:31.906Z,51.63
2022-11-14T13:36:03.836Z,52.83
2022-11-14T13:38:24.265Z,53.63
2022-11-14T13:40:50.584Z,54.32
2022-11-14T13:43:16.948Z,54.89
2022-11-14T13:45:43.313Z,55.15
2022-11-14T13:48:09.666Z,55.40
2022-11-14T13:50:36.028Z,55.52
2022-11-14T13:53:02.388Z,55.82
2022-11-14T13:55:28.718Z,56.22
2022-11-14T13:57:55.041Z,56.35
2022-11-14T14:00:21.491Z,56.63
2022-11-14T14:02:47.699Z,57.10
2022-11-14T14:05:14.061Z,57.10
2022-11-14T14:07:40.454Z,57.50
2022-11-14T14:10:06.840Z,57.62
2022-11-14T14:12:33.161Z,57.72
2022-11-14T14:14:59.508Z,58.13
2022-11-14T14:17:25.844Z,58.79
2022-11-14T14:19:52.197Z,58.98
2022-11-14T14:22:18.563Z,59.59
2022-11-14T14:24:45.022Z,60.17
2022-11-14T14:27:11.304Z,60.47
2022-11-14T14:29:37.671Z,60.77
2022-11-14T14:32:03.994Z,60.78
2022-11-14T14:34:30.357Z,61.10
2022-11-14T14:36:56.672Z,61.15
2022-11-14T14:39:23.045Z,61.51
2022-11-14T14:41:49.528Z,62.04
2022-11-14T14:44:15.849Z,62.10
2022-11-14T14:46:42.177Z,62.08
2022-11-14T14:49:08.537Z,62.00
2022-11-14T14:51:34.902Z,62.13
2022-11-14T14:54:01.215Z,62.42
2022-11-14T14:56:27.561Z,62.60
2022-11-14T14:58:53.973Z,62.53
2022-11-14T15:01:20.389Z,62.62
2022-11-14T15:03:46.743Z,62.74
2022-11-14T15:06:13.061Z,63.02
2022-11-14T15:08:39.421Z,63.45
2022-11-14T15:11:05.794Z,63.74
2022-11-14T15:13:32.097Z,64.06
2022-11-14T15:15:58.422Z,64.31
2022-11-14T15:18:24.788Z,64.47
2022-11-14T15:20:51.152Z,64.75
2022-11-14T15:23:17.544Z,64.93
2022-11-14T15:25:43.910Z,67.04
2022-11-14T15:28:13.013Z,65.51
2022-11-14T15:30:36.557Z,65.43
2022-11-14T15:33:02.886Z,65.87
2022-11-14T15:35:29.257Z,66.07
2022-11-14T15:37:55.580Z,66.36
2022-11-14T15:40:21.919Z,66.56
2022-11-14T15:42:48.310Z,66.75
2022-11-14T15:45:14.635Z,66.96
2022-11-14T15:47:41.020Z,67.11
2022-11-14T15:50:07.352Z,67.49
2022-11-14T15:52:33.724Z,67.82
2022-11-14T15:55:02.284Z,68.07
2022-11-14T15:57:28.594Z,68.25
2022-11-14T15:59:54.966Z,68.45
2022-11-14T16:02:21.294Z,68.73
2022-11-14T16:04:48.120Z,69.08
2022-11-14T16:07:14.075Z,69.45
2022-11-14T16:09:40.356Z,69.87
2022-11-14T16:12:06.724Z,70.06
2022-11-14T16:14:33.050Z,70.49
2022-11-14T16:16:59.374Z,70.84
2022-11-14T16:19:25.748Z,70.58
2022-11-14T16:21:52.066Z,70.59
2022-11-14T16:24:18.453Z,70.53
2022-11-14T16:26:44.767Z,70.45
2022-11-14T16:29:11.148Z,70.90
2022-11-14T16:31:37.490Z,71.09
2022-11-14T16:34:03.859Z,71.35
2022-11-14T16:36:30.166Z,71.38
2022-11-14T16:38:56.553Z,71.42
2022-11-14T16:41:22.912Z,71.38
2022-11-14T16:43:49.279Z,71.57
2022-11-14T16:46:15.663Z,71.71
2022-11-14T16:48:42.011Z,71.86
2022-11-14T16:51:33.041Z,72.07
2022-11-14T16:53:34.747Z,71.97
2022-11-14T16:56:01.105Z,71.92
2022-11-14T16:58:27.430Z,72.02
2022-11-14T17:00:53.833Z,72.27
2022-11-14T17:03:20.203Z,72.93
2022-11-14T17:05:46.598Z,73.44
2022-11-14T17:08:13.030Z,73.69
2022-11-14T17:10:39.264Z,73.75
2022-11-14T17:13:05.628Z,73.61
2022-11-14T17:15:31.968Z,73.67
2022-11-14T17:17:58.333Z,73.82
2022-11-14T17:20:24.717Z,73.59
2022-11-14T17:22:51.058Z,73.48
2022-11-14T17:25:17.382Z,73.27
2022-11-14T17:27:43.747Z,73.09
2022-11-14T17:30:10.148Z,73.31
2022-11-14T17:32:36.518Z,73.35
2022-11-14T17:35:02.843Z,73.61
2022-11-14T17:37:29.177Z,73.91
2022-11-14T17:39:55.501Z,74.30
2022-11-14T17:42:21.860Z,74.40
2022-11-14T17:44:48.235Z,74.47
2022-11-14T17:47:14.624Z,74.80
2022-11-14T17:49:40.990Z,74.66
2022-11-14T17:52:07.365Z,74.44
2022-11-14T17:54:33.680Z,74.48
2022-11-14T17:57:00.017Z,74.94
2022-11-14T17:59:26.374Z,75.34
2022-11-14T18:01:52.821Z,75.58
2022-11-14T18:04:19.108Z,75.32
2022-11-14T18:06:45.465Z,75.36
2022-11-14T18:09:14.412Z,75.41
2022-11-14T18:11:38.327Z,75.73
2022-11-14T18:14:04.595Z,75.58
2022-11-14T18:16:50.497Z,75.68
2022-11-14T18:18:57.359Z,75.15
2022-11-14T18:21:23.725Z,74.97
2022-11-14T18:23:50.047Z,74.70
2022-11-14T18:26:16.374Z,74.59
2022-11-14T18:28:42.736Z,73.98
2022-11-14T18:31:09.058Z,73.51
2022-11-14T18:33:35.376Z,73.36
2022-11-14T18:36:01.739Z,73.22
2022-11-14T18:38:28.271Z,73.28
2022-11-14T18:40:57.290Z,73.13
2022-11-14T18:43:20.945Z,72.91
2022-11-14T18:45:47.294Z,73.60
2022-11-14T18:48:13.627Z,73.66
2022-11-14T18:50:39.997Z,74.01
2022-11-14T18:53:06.334Z,74.47
2022-11-14T18:55:32.661Z,74.62
2022-11-14T18:57:59.022Z,74.48
2022-11-14T19:00:25.395Z,74.47
2022-11-14T19:02:51.717Z,74.35
2022-11-14T19:05:18.048Z,74.24
2022-11-14T19:07:44.410Z,74.26
2022-11-14T19:10:10.794Z,74.01
2022-11-14T19:12:37.119Z,74.53
2022-11-14T19:15:03.504Z,75.31
2022-11-14T19:17:29.848Z,75.57
2022-11-14T19:19:56.197Z,75.84
2022-11-14T19:22:22.553Z,76.30
2022-11-14T19:24:48.883Z,76.62
2022-11-14T19:27:15.285Z,77.42
2022-11-14T19:29:41.642Z,77.89
2022-11-14T19:32:07.993Z,77.99
2022-11-14T19:34:34.348Z,77.80
2022-11-14T19:37:01.428Z,77.57
2022-11-14T19:39:27.004Z,77.47
2022-11-14T19:41:53.423Z,77.60
2022-11-14T19:44:19.793Z,77.77
2022-11-14T19:46:48.078Z,77.89
2022-11-14T19:49:12.504Z,77.92
2022-11-14T19:51:38.817Z,78.36
2022-11-14T19:54:05.192Z,78.67
2022-11-14T19:56:31.530Z,78.73
2022-11-14T19:58:57.856Z,79.01
2022-11-14T20:01:24.319Z,78.90
2022-11-14T20:03:50.658Z,78.84
2022-11-14T20:06:17.017Z,78.87
2022-11-14T20:08:43.385Z,78.65
2022-11-14T20:11:09.704Z,78.41
2022-11-14T20:13:36.104Z,78.16
2022-11-14T20:16:02.398Z,77.89
2022-11-14T20:18:28.763Z,78.06
2022-11-14T20:20:55.187Z,78.02
2022-11-14T20:23:21.507Z,78.03
2022-11-14T20:25:47.908Z,77.89
2022-11-14T20:28:14.215Z,77.82
2022-11-14T20:30:40.532Z,77.73
2022-11-14T20:33:06.885Z,77.33
2022-11-14T20:35:33.251Z,77.13
2022-11-14T20:38:04.343Z,76.83
2022-11-14T20:40:25.973Z,77.26
2022-11-14T20:42:52.332Z,77.11
2022-11-14T20:45:19.886Z,77.27
2022-11-14T20:47:45.096Z,77.48
2022-11-14T20:50:11.530Z,77.13
2022-11-14T20:52:37.944Z,77.02
2022-11-14T20:55:08.918Z,76.59
2022-11-14T20:57:30.629Z,76.16
2022-11-14T20:59:57.023Z,76.08
2022-11-14T21:02:23.383Z,76.09
2022-11-14T21:04:49.689Z,75.96
2022-11-14T21:07:16.090Z,75.76
2022-11-14T21:09:42.383Z,76.13
2022-11-14T21:12:08.757Z,75.69
2022-11-14T21:14:35.175Z,75.60
2022-11-14T21:17:01.545Z,75.75
2022-11-14T21:19:27.894Z,75.72
2022-11-14T21:21:54.222Z,75.53
2022-11-14T21:24:20.573Z,75.41
2022-11-14T21:26:46.935Z,75.51
2022-11-14T21:29:13.386Z,75.18
2022-11-14T21:31:39.743Z,75.43
2022-11-14T21:34:06.138Z,75.42
2022-11-14T21:36:47.888Z,75.39
2022-11-14T21:38:58.808Z,75.17
2022-11-14T21:41:25.216Z,75.69
2022-11-14T21:43:51.566Z,75.91
2022-11-14T21:46:17.929Z,75.87
2022-11-14T21:48:44.291Z,75.71
2022-11-14T21:51:10.610Z,75.44
2022-11-14T21:53:36.932Z,75.52
2022-11-14T21:56:03.297Z,75.59
2022-11-14T21:58:29.647Z,75.37
2022-11-14T22:00:55.974Z,75.43
2022-11-14T22:03:22.327Z,75.53
2022-11-14T22:05:48.652Z,75.50
2022-11-14T22:08:15.000Z,75.74
2022-11-14T22:10:41.334Z,75.92
2022-11-14T22:13:07.650Z,76.38
2022-11-14T22:15:33.984Z,76.54
2022-11-14T22:18:00.337Z,76.37
2022-11-14T22:20:26.675Z,76.31
2022-11-14T22:22:52.986Z,75.92
2022-11-14T22:25:19.342Z,75.79
2022-11-14T22:27:45.696Z,75.25
2022-11-14T22:30:12.051Z,74.72
2022-11-14T22:32:38.377Z,74.94
2022-11-14T22:35:04.774Z,74.86
2022-11-14T22:37:31.086Z,74.76
2022-11-14T22:39:57.508Z,74.47
2022-11-14T22:42:23.882Z,74.41
2022-11-14T22:44:50.242Z,74.83
2022-11-14T22:47:16.555Z,74.88
2022-11-14T22:49:42.881Z,74.33
2022-11-14T22:52:09.261Z,74.27
2022-11-14T22:54:35.538Z,74.13
2022-11-14T22:57:01.893Z,73.92
2022-11-14T22:59:28.240Z,74.08
2022-11-14T23:01:54.598Z,74.23
2022-11-14T23:04:20.947Z,74.32
2022-11-14T23:06:47.398Z,74.32
2022-11-14T23:09:13.702Z,74.77
2022-11-14T23:11:40.061Z,75.06
2022-11-14T23:14:06.431Z,75.21
2022-11-14T23:16:32.872Z,75.91
2022-11-14T23:18:59.239Z,76.48
2022-11-14T23:21:25.594Z,76.25
2022-11-14T23:23:51.916Z,75.73
2022-11-14T23:26:18.293Z,75.30
2022-11-14T23:28:44.604Z,75.14
2022-11-14T23:31:10.920Z,74.81
2022-11-14T23:33:37.244Z,74.61
2022-11-14T23:36:03.617Z,74.13
2022-11-14T23:38:29.945Z,74.05
2022-11-14T23:40:56.321Z,73.99
2022-11-14T23:43:22.683Z,74.33
2022-11-14T23:45:49.037Z,74.86
2022-11-14T23:48:15.384Z,74.44
2022-11-14T23:50:41.709Z,74.04
2022-11-14T23:53:08.016Z,74.24
2022-11-14T23:55:34.341Z,73.86
2022-11-14T23:58:00.700Z,73.45
